Saint Petersburg, Russia
Current Conditions -  °F | °C
As of 9:00 AM on Saturday 29 Nov 2014 (Local Time) from ULLI Reporting Station
Overcast Overcast  
Wind Chill: 13°   Ceiling: 500
Heat Index: 21°   Visibility: 5mi
Dew Point: 19°   Wind: 7mph
Humidity: 93%   Direction: 120°ESE
Pressure: 30.65"   Gusts: NA
Location:  59.93°N, 30.32°E
Report Text: ULLI 290600Z 12003MPS 8000 OVC005 M06/M07 Q1038 88290050 NOSIGRMK OBST OBSC
Loading
Personal Weather Stations






























Interactive Weather Map New forecast layout! Learn more

10-Day Weather Forecast

Advertisements
Track Severe Weather on mobile